sensor_id;sensor_type;location;lat;lon;timestamp;pressure;altitude;pressure_sealevel;temperature;humidity
6216;BME280;3141;49.234;9.326;2023-04-23T00:00:40;98990.22;;;17.45;74.57
6216;BME280;3141;49.234;9.326;2023-04-23T00:01:26;98993.94;;;17.44;74.06
6216;BME280;3141;49.234;9.326;2023-04-23T00:02:09;98991.31;;;17.38;74.73
6216;BME280;3141;49.234;9.326;2023-04-23T00:02:56;99001.63;;;17.34;75.17
6216;BME280;3141;49.234;9.326;2023-04-23T00:03:41;98999.13;;;17.32;75.16
6216;BME280;3141;49.234;9.326;2023-04-23T00:04:25;98992.22;;;17.25;75.53
6216;BME280;3141;49.234;9.326;2023-04-23T00:05:07;99002.06;;;17.24;75.96
6216;BME280;3141;49.234;9.326;2023-04-23T00:05:51;98992.84;;;17.20;76.24
6216;BME280;3141;49.234;9.326;2023-04-23T00:06:34;98987.94;;;17.17;76.76
6216;BME280;3141;49.234;9.326;2023-04-23T00:07:19;98990.81;;;17.16;76.47
6216;BME280;3141;49.234;9.326;2023-04-23T00:08:02;98994.94;;;17.18;77.00
6216;BME280;3141;49.234;9.326;2023-04-23T00:08:46;98995.34;;;17.15;77.34
6216;BME280;3141;49.234;9.326;2023-04-23T00:09:29;98998.63;;;17.17;77.08
6216;BME280;3141;49.234;9.326;2023-04-23T00:10:13;98992.25;;;17.18;77.04
6216;BME280;3141;49.234;9.326;2023-04-23T00:10:56;98987.53;;;17.14;76.71
6216;BME280;3141;49.234;9.326;2023-04-23T00:11:38;98992.25;;;17.18;77.16
6216;BME280;3141;49.234;9.326;2023-04-23T00:12:21;98993.88;;;17.19;76.84
6216;BME280;3141;49.234;9.326;2023-04-23T00:13:03;98991.59;;;17.23;76.47
6216;BME280;3141;49.234;9.326;2023-04-23T00:13:46;98998.66;;;17.11;76.99
6216;BME280;3141;49.234;9.326;2023-04-23T00:14:30;98993.31;;;17.11;77.59
6216;BME280;3141;49.234;9.326;2023-04-23T00:15:13;98995.16;;;17.10;77.31
6216;BME280;3141;49.234;9.326;2023-04-23T00:15:56;98991.69;;;17.10;77.50
6216;BME280;3141;49.234;9.326;2023-04-23T00:16:39;98993.75;;;17.08;77.60
6216;BME280;3141;49.234;9.326;2023-04-23T00:17:22;98996.59;;;17.13;77.03
6216;BME280;3141;49.234;9.326;2023-04-23T00:18:04;98999.06;;;17.14;76.61
6216;BME280;3141;49.234;9.326;2023-04-23T00:18:46;98995.72;;;17.19;76.33
6216;BME280;3141;49.234;9.326;2023-04-23T00:19:29;98997.78;;;17.23;76.15
6216;BME280;3141;49.234;9.326;2023-04-23T00:20:11;98997.78;;;17.23;77.11
6216;BME280;3141;49.234;9.326;2023-04-23T00:20:53;98995.50;;;17.20;76.39
6216;BME280;3141;49.234;9.326;2023-04-23T00:21:36;98991.59;;;17.23;76.68
6216;BME280;3141;49.234;9.326;2023-04-23T00:22:19;98991.34;;;17.31;76.30
6216;BME280;3141;49.234;9.326;2023-04-23T00:23:01;98992.38;;;17.30;76.67
6216;BME280;3141;49.234;9.326;2023-04-23T00:23:43;98989.72;;;17.30;75.73
6216;BME280;3141;49.234;9.326;2023-04-23T00:24:26;98993.84;;;17.26;75.48
6216;BME280;3141;49.234;9.326;2023-04-23T00:25:09;99002.13;;;17.18;75.66
6216;BME280;3141;49.234;9.326;2023-04-23T00:25:52;98994.38;;;17.10;76.75
6216;BME280;3141;49.234;9.326;2023-04-23T00:26:34;98998.50;;;17.06;77.56
6216;BME280;3141;49.234;9.326;2023-04-23T00:27:17;98998.06;;;17.09;77.91
6216;BME280;3141;49.234;9.326;2023-04-23T00:27:59;98999.13;;;17.01;79.08
6216;BME280;3141;49.234;9.326;2023-04-23T00:28:41;98992.75;;;17.02;78.71
6216;BME280;3141;49.234;9.326;2023-04-23T00:29:24;98998.81;;;16.78;77.37
6216;BME280;3141;49.234;9.326;2023-04-23T00:30:06;98995.72;;;16.81;77.03
6216;BME280;3141;49.234;9.326;2023-04-23T00:30:50;98996.13;;;16.85;76.27
6216;BME280;3141;49.234;9.326;2023-04-23T00:31:32;98999.03;;;16.77;75.26
6216;BME280;3141;49.234;9.326;2023-04-23T00:32:14;99001.72;;;16.77;74.62
6216;BME280;3141;49.234;9.326;2023-04-23T00:32:57;99000.00;;;16.89;73.98
6216;BME280;3141;49.234;9.326;2023-04-23T00:33:39;99006.19;;;16.83;73.83
6216;BME280;3141;49.234;9.326;2023-04-23T00:34:21;99002.69;;;16.89;73.73
6216;BME280;3141;49.234;9.326;2023-04-23T00:35:04;99003.50;;;16.83;73.43
6216;BME280;3141;49.234;9.326;2023-04-23T00:35:46;99007.19;;;16.88;73.62
6216;BME280;3141;49.234;9.326;2023-04-23T00:36:29;99008.63;;;16.91;73.70
6216;BME280;3141;49.234;9.326;2023-04-23T00:37:12;98999.31;;;17.06;73.10
6216;BME280;3141;49.234;9.326;2023-04-23T00:37:54;98997.97;;;16.91;73.21
6216;BME280;3141;49.234;9.326;2023-04-23T00:38:36;99007.78;;;16.97;72.94
6216;BME280;3141;49.234;9.326;2023-04-23T00:39:19;99007.34;;;17.00;72.99
6216;BME280;3141;49.234;9.326;2023-04-23T00:40:01;99001.41;;;16.98;72.67
6216;BME280;3141;49.234;9.326;2023-04-23T00:40:45;99006.94;;;16.96;73.25
6216;BME280;3141;49.234;9.326;2023-04-23T00:41:27;99005.88;;;17.04;72.88
6216;BME280;3141;49.234;9.326;2023-04-23T00:42:10;99012.44;;;17.08;72.89
6216;BME280;3141;49.234;9.326;2023-04-23T00:42:55;99002.81;;;17.00;72.90
6216;BME280;3141;49.234;9.326;2023-04-23T00:43:39;99003.06;;;16.92;73.14
6216;BME280;3141;49.234;9.326;2023-04-23T00:44:22;99010.09;;;16.87;73.40
6216;BME280;3141;49.234;9.326;2023-04-23T00:45:08;99004.09;;;16.91;73.43
6216;BME280;3141;49.234;9.326;2023-04-23T00:45:50;99012.56;;;16.82;73.61
6216;BME280;3141;49.234;9.326;2023-04-23T00:46:34;99014.81;;;16.85;73.60
6216;BME280;3141;49.234;9.326;2023-04-23T00:47:16;99010.09;;;16.87;73.82
6216;BME280;3141;49.234;9.326;2023-04-23T00:47:59;99016.22;;;16.94;73.32
6216;BME280;3141;49.234;9.326;2023-04-23T00:48:41;99021.22;;;16.77;73.73
6216;BME280;3141;49.234;9.326;2023-04-23T00:49:24;99019.03;;;16.55;73.79
6216;BME280;3141;49.234;9.326;2023-04-23T00:50:07;99023.53;;;16.61;73.90
6216;BME280;3141;49.234;9.326;2023-04-23T00:51:02;99014.66;;;16.73;74.18
6216;BME280;3141;49.234;9.326;2023-04-23T00:51:45;99013.91;;;16.47;75.02
6216;BME280;3141;49.234;9.326;2023-04-23T00:52:27;99021.69;;;16.48;75.14
6216;BME280;3141;49.234;9.326;2023-04-23T00:53:10;99022.31;;;16.37;75.55
6216;BME280;3141;49.234;9.326;2023-04-23T00:53:52;99026.22;;;16.48;75.39
6216;BME280;3141;49.234;9.326;2023-04-23T00:54:35;99020.91;;;16.48;75.58
6216;BME280;3141;49.234;9.326;2023-04-23T00:55:17;99024.78;;;16.58;75.24
6216;BME280;3141;49.234;9.326;2023-04-23T00:56:03;99020.22;;;16.72;74.77
6216;BME280;3141;49.234;9.326;2023-04-23T00:56:47;99021.50;;;16.56;75.44
6216;BME280;3141;49.234;9.326;2023-04-23T00:57:29;99024.78;;;16.52;75.86
6216;BME280;3141;49.234;9.326;2023-04-23T00:58:13;99020.06;;;16.41;76.40
6216;BME280;3141;49.234;9.326;2023-04-23T00:58:55;99024.56;;;16.40;76.62
6216;BME280;3141;49.234;9.326;2023-04-23T00:59:38;99025.59;;;16.39;77.04
6216;BME280;3141;49.234;9.326;2023-04-23T01:00:21;99023.94;;;16.38;77.05
6216;BME280;3141;49.234;9.326;2023-04-23T01:01:03;99028.91;;;16.48;76.85
6216;BME280;3141;49.234;9.326;2023-04-23T01:01:46;99021.91;;;16.34;77.17
6216;BME280;3141;49.234;9.326;2023-04-23T01:02:29;99026.22;;;16.35;77.86
6216;BME280;3141;49.234;9.326;2023-04-23T01:03:12;99027.25;;;16.47;77.56
6216;BME280;3141;49.234;9.326;2023-04-23T01:03:54;99028.06;;;16.41;78.02
6216;BME280;3141;49.234;9.326;2023-04-23T01:04:38;99032.16;;;16.37;78.31
6216;BME280;3141;49.234;9.326;2023-04-23T01:05:22;99037.50;;;16.37;78.74
6216;BME280;3141;49.234;9.326;2023-04-23T01:06:05;99033.22;;;16.23;79.26
6216;BME280;3141;49.234;9.326;2023-04-23T01:06:48;99032.78;;;16.26;80.20
6216;BME280;3141;49.234;9.326;2023-04-23T01:07:31;99037.50;;;16.37;79.76
6216;BME280;3141;49.234;9.326;2023-04-23T01:08:16;99030.53;;;16.29;80.40
6216;BME280;3141;49.234;9.326;2023-04-23T01:08:58;99046.53;;;16.36;79.69
6216;BME280;3141;49.234;9.326;2023-04-23T01:09:42;99040.00;;;16.18;80.34
6216;BME280;3141;49.234;9.326;2023-04-23T01:10:25;99032.63;;;16.07;81.54
6216;BME280;3141;49.234;9.326;2023-04-23T01:11:08;99030.56;;;16.16;81.26
6216;BME280;3141;49.234;9.326;2023-04-23T01:11:50;99033.25;;;16.09;81.60
6216;BME280;3141;49.234;9.326;2023-04-23T01:12:33;99031.56;;;16.08;81.78
6216;BME280;3141;49.234;9.326;2023-04-23T01:13:16;99032.63;;;16.07;82.10
6216;BME280;3141;49.234;9.326;2023-04-23T01:13:58;99033.63;;;16.19;82.03
6216;BME280;3141;49.234;9.326;2023-04-23T01:14:41;99041.63;;;16.19;82.25
6216;BME280;3141;49.234;9.326;2023-04-23T01:15:24;99030.34;;;16.11;82.81
6216;BME280;3141;49.234;9.326;2023-04-23T01:16:07;99043.06;;;16.22;82.29
6216;BME280;3141;49.234;9.326;2023-04-23T01:16:49;99037.72;;;16.15;83.02
6216;BME280;3141;49.234;9.326;2023-04-23T01:17:33;99034.03;;;16.03;84.07
6216;BME280;3141;49.234;9.326;2023-04-23T01:18:16;99037.34;;;16.18;83.69
6216;BME280;3141;49.234;9.326;2023-04-23T01:19:01;99040.00;;;16.12;84.01
6216;BME280;3141;49.234;9.326;2023-04-23T01:19:43;99042.84;;;16.17;83.60
6216;BME280;3141;49.234;9.326;2023-04-23T01:20:25;99038.16;;;16.12;84.40
6216;BME280;3141;49.234;9.326;2023-04-23T01:21:09;99039.78;;;16.00;84.91
6216;BME280;3141;49.234;9.326;2023-04-23T01:21:53;99040.81;;;16.06;84.80
6216;BME280;3141;49.234;9.326;2023-04-23T01:22:36;99043.47;;;16.12;84.58
6216;BME280;3141;49.234;9.326;2023-04-23T01:23:19;99040.41;;;16.09;84.92
6216;BME280;3141;49.234;9.326;2023-04-23T01:24:05;99036.50;;;16.05;84.99
6216;BME280;3141;49.234;9.326;2023-04-23T01:24:47;99037.56;;;15.97;85.78
6216;BME280;3141;49.234;9.326;2023-04-23T01:25:30;99037.75;;;15.83;86.26
6216;BME280;3141;49.234;9.326;2023-04-23T01:26:12;99032.22;;;15.91;86.50
6216;BME280;3141;49.234;9.326;2023-04-23T01:26:56;99035.88;;;15.96;86.31
6216;BME280;3141;49.234;9.326;2023-04-23T01:27:40;99039.59;;;15.82;87.39
6216;BME280;3141;49.234;9.326;2023-04-23T01:28:23;99037.16;;;15.87;87.10
6216;BME280;3141;49.234;9.326;2023-04-23T01:29:05;99042.25;;;15.95;86.64
6216;BME280;3141;49.234;9.326;2023-04-23T01:29:48;99040.41;;;15.89;87.15
6216;BME280;3141;49.234;9.326;2023-04-23T01:30:31;99043.47;;;15.86;87.48
6216;BME280;3141;49.234;9.326;2023-04-23T01:31:15;99044.94;;;15.82;87.99
6216;BME280;3141;49.234;9.326;2023-04-23T01:31:58;99040.41;;;15.76;87.25
6216;BME280;3141;49.234;9.326;2023-04-23T01:32:41;99046.78;;;15.75;88.09
6216;BME280;3141;49.234;9.326;2023-04-23T01:33:24;99040.81;;;15.73;88.46
6216;BME280;3141;49.234;9.326;2023-04-23T01:34:07;99040.41;;;15.76;88.66
6216;BME280;3141;49.234;9.326;2023-04-23T01:34:50;99049.03;;;15.78;88.49
6216;BME280;3141;49.234;9.326;2023-04-23T01:35:35;99040.41;;;15.70;89.71
6216;BME280;3141;49.234;9.326;2023-04-23T01:36:18;99051.91;;;15.77;89.42
6216;BME280;3141;49.234;9.326;2023-04-23T01:37:02;99047.97;;;15.86;88.52
6216;BME280;3141;49.234;9.326;2023-04-23T01:37:45;99045.31;;;15.86;88.47
6216;BME280;3141;49.234;9.326;2023-04-23T01:38:30;99050.66;;;15.86;89.19
6216;BME280;3141;49.234;9.326;2023-04-23T01:39:13;99052.31;;;15.80;89.14
6216;BME280;3141;49.234;9.326;2023-04-23T01:39:55;99043.06;;;15.76;89.50
6216;BME280;3141;49.234;9.326;2023-04-23T01:40:38;99049.19;;;15.70;89.50
6216;BME280;3141;49.234;9.326;2023-04-23T01:41:20;99041.22;;;15.70;89.82
6216;BME280;3141;49.234;9.326;2023-04-23T01:42:03;99043.69;;;15.72;90.06
6216;BME280;3141;49.234;9.326;2023-04-23T01:42:48;99048.59;;;15.81;89.46
6216;BME280;3141;49.234;9.326;2023-04-23T01:43:31;99049.84;;;15.85;89.56
6216;BME280;3141;49.234;9.326;2023-04-23T01:44:14;99047.56;;;15.69;89.56
6216;BME280;3141;49.234;9.326;2023-04-23T01:44:56;99049.03;;;15.78;90.04
6216;BME280;3141;49.234;9.326;2023-04-23T01:45:40;99055.81;;;15.94;88.82
6216;BME280;3141;49.234;9.326;2023-04-23T01:46:22;99052.72;;;15.90;88.53
6216;BME280;3141;49.234;9.326;2023-04-23T01:47:04;99050.47;;;16.00;88.01
6216;BME280;3141;49.234;9.326;2023-04-23T01:47:47;99049.22;;;15.96;88.21
6216;BME280;3141;49.234;9.326;2023-04-23T01:48:29;99053.31;;;15.86;88.66
6216;BME280;3141;49.234;9.326;2023-04-23T01:49:12;99055.19;;;15.85;88.70
6216;BME280;3141;49.234;9.326;2023-04-23T01:49:54;99052.09;;;15.88;88.52
6216;BME280;3141;49.234;9.326;2023-04-23T01:50:37;99051.47;;;15.73;89.70
6216;BME280;3141;49.234;9.326;2023-04-23T01:51:20;99052.69;;;15.77;89.50
6216;BME280;3141;49.234;9.326;2023-04-23T01:52:02;99054.97;;;15.87;88.74
6216;BME280;3141;49.234;9.326;2023-04-23T01:52:45;99057.63;;;15.80;88.92
6216;BME280;3141;49.234;9.326;2023-04-23T01:53:27;99052.72;;;15.90;88.32
6216;BME280;3141;49.234;9.326;2023-04-23T01:54:09;99051.47;;;15.86;88.27
6216;BME280;3141;49.234;9.326;2023-04-23T01:54:52;99057.44;;;15.88;88.75
6216;BME280;3141;49.234;9.326;2023-04-23T01:55:37;99060.09;;;15.75;88.95
6216;BME280;3141;49.234;9.326;2023-04-23T01:56:24;99058.84;;;15.65;89.79
6216;BME280;3141;49.234;9.326;2023-04-23T01:57:08;99055.56;;;15.69;90.03
6216;BME280;3141;49.234;9.326;2023-04-23T01:57:50;99054.94;;;15.74;89.09
6216;BME280;3141;49.234;9.326;2023-04-23T01:58:33;99051.88;;;15.64;89.78
6216;BME280;3141;49.234;9.326;2023-04-23T01:59:15;99054.31;;;15.59;90.03
6216;BME280;3141;49.234;9.326;2023-04-23T02:00:03;99054.16;;;15.67;90.18
6216;BME280;3141;49.234;9.326;2023-04-23T02:00:55;99055.19;;;15.79;89.12
6216;BME280;3141;49.234;9.326;2023-04-23T02:01:42;99060.09;;;15.88;88.46
6216;BME280;3141;49.234;9.326;2023-04-23T02:02:25;99054.78;;;15.75;89.22
6216;BME280;3141;49.234;9.326;2023-04-23T02:03:07;99057.03;;;15.78;89.37
6216;BME280;3141;49.234;9.326;2023-04-23T02:03:50;99058.47;;;15.87;88.90
6216;BME280;3141;49.234;9.326;2023-04-23T02:04:32;99055.59;;;15.95;88.21
6216;BME280;3141;49.234;9.326;2023-04-23T02:05:16;99057.84;;;15.98;87.87
6216;BME280;3141;49.234;9.326;2023-04-23T02:05:59;99053.94;;;15.88;88.46
6216;BME280;3141;49.234;9.326;2023-04-23T02:06:45;99052.72;;;15.84;88.44
6216;BME280;3141;49.234;9.326;2023-04-23T02:07:28;99060.91;;;15.95;87.90
6216;BME280;3141;49.234;9.326;2023-04-23T02:08:10;99054.16;;;15.99;87.57
6216;BME280;3141;49.234;9.326;2023-04-23T02:08:52;99055.19;;;15.98;87.76
6216;BME280;3141;49.234;9.326;2023-04-23T02:09:35;99053.94;;;15.81;88.86
6216;BME280;3141;49.234;9.326;2023-04-23T02:10:18;99056.19;;;15.84;88.56
6216;BME280;3141;49.234;9.326;2023-04-23T02:11:01;99062.34;;;15.78;89.26
6216;BME280;3141;49.234;9.326;2023-04-23T02:11:44;99069.09;;;15.61;89.80
6216;BME280;3141;49.234;9.326;2023-04-23T02:12:26;99060.91;;;15.69;89.93
6216;BME280;3141;49.234;9.326;2023-04-23T02:13:08;99059.47;;;15.73;89.77
6216;BME280;3141;49.234;9.326;2023-04-23T02:13:51;99064.41;;;15.83;89.29
6216;BME280;3141;49.234;9.326;2023-04-23T02:14:33;99057.44;;;15.82;89.37
6216;BME280;3141;49.234;9.326;2023-04-23T02:15:16;99069.94;;;15.81;89.03
6216;BME280;3141;49.234;9.326;2023-04-23T02:15:58;99067.47;;;15.73;89.22
6216;BME280;3141;49.234;9.326;2023-04-23T02:16:40;99069.50;;;15.84;88.67
6216;BME280;3141;49.234;9.326;2023-04-23T02:17:23;99072.81;;;15.86;88.90
6216;BME280;3141;49.234;9.326;2023-04-23T02:18:05;99069.13;;;15.87;88.77
6216;BME280;3141;49.234;9.326;2023-04-23T02:18:47;99070.75;;;15.75;89.36
6216;BME280;3141;49.234;9.326;2023-04-23T02:19:30;99065.63;;;15.80;88.85
6216;BME280;3141;49.234;9.326;2023-04-23T02:20:15;99072.38;;;15.89;88.47
6216;BME280;3141;49.234;9.326;2023-04-23T02:20:57;99062.75;;;15.95;87.66
6216;BME280;3141;49.234;9.326;2023-04-23T02:21:40;99066.84;;;15.84;88.45
6216;BME280;3141;49.234;9.326;2023-04-23T02:22:23;99069.13;;;15.87;88.47
6216;BME280;3141;49.234;9.326;2023-04-23T02:23:07;99067.66;;;15.98;87.85
6216;BME280;3141;49.234;9.326;2023-04-23T02:23:50;99067.69;;;15.91;88.19
6216;BME280;3141;49.234;9.326;2023-04-23T02:24:32;99075.69;;;15.91;88.42
6216;BME280;3141;49.234;9.326;2023-04-23T02:25:15;99071.34;;;15.77;89.32
6216;BME280;3141;49.234;9.326;2023-04-23T02:25:59;99078.13;;;15.80;89.14
6216;BME280;3141;49.234;9.326;2023-04-23T02:26:41;99077.72;;;15.76;89.42
6216;BME280;3141;49.234;9.326;2023-04-23T02:27:23;99074.44;;;15.81;89.00
6216;BME280;3141;49.234;9.326;2023-04-23T02:28:06;99075.06;;;15.89;88.58
6216;BME280;3141;49.234;9.326;2023-04-23T02:28:48;99074.84;;;15.84;89.25
6216;BME280;3141;49.234;9.326;2023-04-23T02:29:31;99069.97;;;15.94;88.36
6216;BME280;3141;49.234;9.326;2023-04-23T02:30:13;99076.72;;;15.90;88.55
6216;BME280;3141;49.234;9.326;2023-04-23T02:30:56;99073.63;;;15.93;88.47
6216;BME280;3141;49.234;9.326;2023-04-23T02:31:38;99077.94;;;15.75;89.04
6216;BME280;3141;49.234;9.326;2023-04-23T02:32:20;99069.53;;;15.91;88.92
6216;BME280;3141;49.234;9.326;2023-04-23T02:33:03;99070.75;;;15.88;88.55
6216;BME280;3141;49.234;9.326;2023-04-23T02:33:46;99066.66;;;15.99;88.21
6216;BME280;3141;49.234;9.326;2023-04-23T02:34:29;99074.03;;;16.03;88.17
6216;BME280;3141;49.234;9.326;2023-04-23T02:35:11;99071.19;;;16.11;86.72
6216;BME280;3141;49.234;9.326;2023-04-23T02:35:54;99077.75;;;16.02;87.16
6216;BME280;3141;49.234;9.326;2023-04-23T02:36:36;99070.75;;;16.01;87.29
6216;BME280;3141;49.234;9.326;2023-04-23T02:37:19;99071.59;;;15.95;88.01
6216;BME280;3141;49.234;9.326;2023-04-23T02:38:02;99072.22;;;15.97;87.95
6216;BME280;3141;49.234;9.326;2023-04-23T02:38:44;99073.00;;;15.72;89.36
6216;BME280;3141;49.234;9.326;2023-04-23T02:39:28;99068.31;;;15.80;88.98
6216;BME280;3141;49.234;9.326;2023-04-23T02:40:11;99069.72;;;15.89;88.65
6216;BME280;3141;49.234;9.326;2023-04-23T02:40:53;99066.88;;;15.97;87.88
6216;BME280;3141;49.234;9.326;2023-04-23T02:41:35;99079.38;;;15.90;88.25
6216;BME280;3141;49.234;9.326;2023-04-23T02:42:18;99065.00;;;15.98;87.91
6216;BME280;3141;49.234;9.326;2023-04-23T02:43:00;99071.78;;;16.00;87.71
6216;BME280;3141;49.234;9.326;2023-04-23T02:43:42;99073.03;;;16.04;87.36
6216;BME280;3141;49.234;9.326;2023-04-23T02:44:24;99064.81;;;16.06;87.85
6216;BME280;3141;49.234;9.326;2023-04-23T02:45:07;99067.47;;;15.86;88.09
6216;BME280;3141;49.234;9.326;2023-04-23T02:45:49;99059.47;;;15.93;88.27
6216;BME280;3141;49.234;9.326;2023-04-23T02:46:32;99065.03;;;16.04;87.51
6216;BME280;3141;49.234;9.326;2023-04-23T02:47:14;99068.72;;;15.90;88.12
6216;BME280;3141;49.234;9.326;2023-04-23T02:47:56;99067.28;;;16.01;87.54
6216;BME280;3141;49.234;9.326;2023-04-23T02:48:40;99077.53;;;16.04;87.58
6216;BME280;3141;49.234;9.326;2023-04-23T02:49:22;99069.94;;;15.81;88.40
6216;BME280;3141;49.234;9.326;2023-04-23T02:50:05;99069.72;;;15.83;89.12
6216;BME280;3141;49.234;9.326;2023-04-23T02:50:48;99062.97;;;15.93;88.68
6216;BME280;3141;49.234;9.326;2023-04-23T02:51:31;99062.97;;;15.87;87.80
6216;BME280;3141;49.234;9.326;2023-04-23T02:52:13;99068.72;;;15.97;88.06
6216;BME280;3141;49.234;9.326;2023-04-23T02:52:56;99067.28;;;15.94;88.63
6216;BME280;3141;49.234;9.326;2023-04-23T02:53:38;99066.66;;;16.05;87.60
6216;BME280;3141;49.234;9.326;2023-04-23T02:54:20;99072.81;;;16.06;87.14
6216;BME280;3141;49.234;9.326;2023-04-23T02:55:03;99068.28;;;16.00;87.92
6216;BME280;3141;49.234;9.326;2023-04-23T02:55:46;99066.47;;;16.00;88.03
6216;BME280;3141;49.234;9.326;2023-04-23T02:56:28;99061.34;;;15.92;88.26
6216;BME280;3141;49.234;9.326;2023-04-23T02:57:10;99076.91;;;15.95;88.36
6216;BME280;3141;49.234;9.326;2023-04-23T02:57:55;99067.47;;;15.73;89.14
6216;BME280;3141;49.234;9.326;2023-04-23T02:58:37;99073.22;;;15.77;89.38
6216;BME280;3141;49.234;9.326;2023-04-23T02:59:20;99070.75;;;15.88;88.82
6216;BME280;3141;49.234;9.326;2023-04-23T03:00:02;99073.63;;;15.93;88.83
6216;BME280;3141;49.234;9.326;2023-04-23T03:00:48;99069.97;;;15.94;88.53
6216;BME280;3141;49.234;9.326;2023-04-23T03:01:30;99069.94;;;15.88;88.37
6216;BME280;3141;49.234;9.326;2023-04-23T03:02:12;99070.16;;;15.99;87.98
6216;BME280;3141;49.234;9.326;2023-04-23T03:02:55;99068.28;;;15.93;87.72
6216;BME280;3141;49.234;9.326;2023-04-23T03:03:37;99067.91;;;16.03;87.39
6216;BME280;3141;49.234;9.326;2023-04-23T03:04:20;99067.06;;;16.02;87.53
6216;BME280;3141;49.234;9.326;2023-04-23T03:05:03;99069.94;;;16.01;87.40
6216;BME280;3141;49.234;9.326;2023-04-23T03:05:46;99073.66;;;16.06;86.58
6216;BME280;3141;49.234;9.326;2023-04-23T03:06:29;99072.19;;;16.10;86.84
6216;BME280;3141;49.234;9.326;2023-04-23T03:07:13;99068.91;;;16.02;87.44
6216;BME280;3141;49.234;9.326;2023-04-23T03:07:58;99069.94;;;15.81;88.27
6216;BME280;3141;49.234;9.326;2023-04-23T03:08:40;99061.94;;;15.81;88.64
6216;BME280;3141;49.234;9.326;2023-04-23T03:09:23;99068.28;;;15.93;87.74
6216;BME280;3141;49.234;9.326;2023-04-23T03:10:05;99064.59;;;15.88;87.48
6216;BME280;3141;49.234;9.326;2023-04-23T03:10:49;99070.34;;;15.91;87.74
6216;BME280;3141;49.234;9.326;2023-04-23T03:11:32;99067.50;;;15.99;87.30
6216;BME280;3141;49.234;9.326;2023-04-23T03:12:14;99069.94;;;15.81;87.85
6216;BME280;3141;49.234;9.326;2023-04-23T03:12:57;99066.22;;;15.69;88.55
6216;BME280;3141;49.234;9.326;2023-04-23T03:13:39;99072.19;;;15.65;88.90
6216;BME280;3141;49.234;9.326;2023-04-23T03:14:22;99073.44;;;15.88;87.87
6216;BME280;3141;49.234;9.326;2023-04-23T03:15:04;99070.97;;;15.80;88.59
6216;BME280;3141;49.234;9.326;2023-04-23T03:15:47;99063.19;;;15.85;88.00
6216;BME280;3141;49.234;9.326;2023-04-23T03:16:30;99059.69;;;15.91;86.64
6216;BME280;3141;49.234;9.326;2023-04-23T03:17:13;99065.84;;;15.85;87.68
6216;BME280;3141;49.234;9.326;2023-04-23T03:17:55;99063.19;;;15.92;87.59
6216;BME280;3141;49.234;9.326;2023-04-23T03:18:37;99069.09;;;15.81;87.42
6216;BME280;3141;49.234;9.326;2023-04-23T03:19:20;99064.19;;;15.84;88.19
6216;BME280;3141;49.234;9.326;2023-04-23T03:20:02;99066.25;;;15.89;87.53
6216;BME280;3141;49.234;9.326;2023-04-23T03:20:45;99061.53;;;15.78;87.74
6216;BME280;3141;49.234;9.326;2023-04-23T03:21:27;99066.03;;;15.71;88.85
6216;BME280;3141;49.234;9.326;2023-04-23T03:22:09;99071.97;;;15.66;89.10
6216;BME280;3141;49.234;9.326;2023-04-23T03:22:52;99061.09;;;15.81;88.13
6216;BME280;3141;49.234;9.326;2023-04-23T03:23:35;99064.41;;;15.76;88.71
6216;BME280;3141;49.234;9.326;2023-04-23T03:24:17;99066.66;;;15.79;88.66
6216;BME280;3141;49.234;9.326;2023-04-23T03:24:59;99060.47;;;15.72;88.23
6216;BME280;3141;49.234;9.326;2023-04-23T03:25:42;99062.97;;;15.80;88.31
6216;BME280;3141;49.234;9.326;2023-04-23T03:26:24;99061.72;;;15.89;87.10
6216;BME280;3141;49.234;9.326;2023-04-23T03:27:06;99062.34;;;15.72;88.27
6216;BME280;3141;49.234;9.326;2023-04-23T03:27:49;99060.47;;;15.66;88.63
6216;BME280;3141;49.234;9.326;2023-04-23T03:28:31;99062.31;;;15.65;88.20
6216;BME280;3141;49.234;9.326;2023-04-23T03:29:14;99059.28;;;15.68;88.52
6216;BME280;3141;49.234;9.326;2023-04-23T03:29:56;99060.69;;;15.77;87.90
6216;BME280;3141;49.234;9.326;2023-04-23T03:30:39;99055.81;;;15.87;88.11
6216;BME280;3141;49.234;9.326;2023-04-23T03:31:21;99049.84;;;15.92;87.78
6216;BME280;3141;49.234;9.326;2023-04-23T03:32:03;99055.81;;;15.87;87.24
6216;BME280;3141;49.234;9.326;2023-04-23T03:32:47;99057.63;;;16.00;87.02
6216;BME280;3141;49.234;9.326;2023-04-23T03:33:29;99048.41;;;15.96;87.29
6216;BME280;3141;49.234;9.326;2023-04-23T03:34:12;99045.75;;;16.02;86.55
6216;BME280;3141;49.234;9.326;2023-04-23T03:34:54;99057.44;;;16.08;86.67
6216;BME280;3141;49.234;9.326;2023-04-23T03:35:36;99049.00;;;15.98;86.70
6216;BME280;3141;49.234;9.326;2023-04-23T03:36:19;99052.72;;;15.90;86.98
6216;BME280;3141;49.234;9.326;2023-04-23T03:37:01;99051.28;;;15.94;86.63
6216;BME280;3141;49.234;9.326;2023-04-23T03:37:43;99051.47;;;15.86;87.34
6216;BME280;3141;49.234;9.326;2023-04-23T03:38:26;99052.94;;;15.89;87.34
6216;BME280;3141;49.234;9.326;2023-04-23T03:39:08;99048.19;;;15.84;87.49
6216;BME280;3141;49.234;9.326;2023-04-23T03:39:51;99047.38;;;15.97;87.54
6216;BME280;3141;49.234;9.326;2023-04-23T03:40:33;99049.84;;;15.98;87.47
6216;BME280;3141;49.234;9.326;2023-04-23T03:41:16;99052.50;;;15.98;87.46
6216;BME280;3141;49.234;9.326;2023-04-23T03:41:59;99048.63;;;15.94;87.42
6216;BME280;3141;49.234;9.326;2023-04-23T03:42:42;99050.88;;;15.97;86.96
6216;BME280;3141;49.234;9.326;2023-04-23T03:43:24;99052.31;;;15.93;87.62
6216;BME280;3141;49.234;9.326;2023-04-23T03:44:06;99051.28;;;15.88;87.74
6216;BME280;3141;49.234;9.326;2023-04-23T03:44:49;99048.41;;;15.70;88.10
6216;BME280;3141;49.234;9.326;2023-04-23T03:45:31;99047.78;;;15.68;88.74
6216;BME280;3141;49.234;9.326;2023-04-23T03:46:13;99054.97;;;15.80;88.05
6216;BME280;3141;49.234;9.326;2023-04-23T03:46:56;99051.47;;;15.86;88.16
6216;BME280;3141;49.234;9.326;2023-04-23T03:47:39;99051.47;;;15.73;88.51
6216;BME280;3141;49.234;9.326;2023-04-23T03:48:21;99048.59;;;15.75;88.46
6216;BME280;3141;49.234;9.326;2023-04-23T03:49:03;99052.69;;;15.77;88.88
6216;BME280;3141;49.234;9.326;2023-04-23T03:49:46;99048.59;;;15.75;88.58
6216;BME280;3141;49.234;9.326;2023-04-23T03:50:28;99052.50;;;15.72;88.58
6216;BME280;3141;49.234;9.326;2023-04-23T03:51:10;99056.81;;;15.73;88.57
6216;BME280;3141;49.234;9.326;2023-04-23T03:51:53;99050.03;;;15.77;88.47
6216;BME280;3141;49.234;9.326;2023-04-23T03:52:35;99064.19;;;15.78;88.37
6216;BME280;3141;49.234;9.326;2023-04-23T03:53:17;99054.16;;;15.86;87.90
6216;BME280;3141;49.234;9.326;2023-04-23T03:54:00;99057.63;;;15.87;87.85